Time;durP1;ratioP1;P1;durP2;ratioP2;P2;SDS_P1;SDS_P2;PMS_P1;PMS_P2;Temp;Humidity;BMP_temperature;BMP_pressure;BME280_temperature;BME280_humidity;BME280_pressure;Samples;Min_cycle;Max_cycle;Signal;HPM_P1;HPM_P2
2023/12/28 00:01:34;;;;;;;6.32;2.53;;;8.60;99.90;;;;;;5080964;28;20016;-43
2023/12/28 00:04:00;;;;;;;4.57;2.67;;;8.70;99.90;;;;;;5084218;28;20058;-45
2023/12/28 00:06:25;;;;;;;7.45;2.28;;;8.60;99.90;;;;;;5080729;28;20075;-48
2023/12/28 00:08:51;;;;;;;3.67;1.90;;;8.70;99.90;;;;;;5082315;28;20016;-45
2023/12/28 00:11:16;;;;;;;4.63;2.17;;;8.70;99.90;;;;;;5083276;28;20017;-44
2023/12/28 00:13:42;;;;;;;5.40;2.15;;;8.80;99.90;;;;;;5081230;28;20020;-45
2023/12/28 00:16:08;;;;;;;5.32;2.80;;;8.80;99.90;;;;;;5084152;28;20024;-44
2023/12/28 00:18:33;;;;;;;5.20;2.85;;;8.80;99.90;;;;;;5079544;28;20529;-43
2023/12/28 00:20:59;;;;;;;7.00;2.70;;;8.70;99.90;;;;;;5084442;28;20020;-44
2023/12/28 00:23:25;;;;;;;3.75;2.50;;;8.70;99.90;;;;;;5082546;28;20019;-44
2023/12/28 00:25:50;;;;;;;6.78;2.88;;;8.70;99.90;;;;;;5082318;28;20017;-46
2023/12/28 00:28:16;;;;;;;4.38;2.60;;;8.60;99.90;;;;;;5083857;28;20052;-44
2023/12/28 00:30:41;;;;;;;5.05;2.88;;;8.60;99.90;;;;;;5081648;28;20094;-45
2023/12/28 00:33:07;;;;;;;5.03;2.45;;;8.60;99.90;;;;;;5084360;28;20505;-45
2023/12/28 00:35:33;;;;;;;8.98;2.30;;;8.70;99.90;;;;;;5081162;28;20025;-45
2023/12/28 00:37:58;;;;;;;9.18;2.70;;;8.70;99.90;;;;;;5083270;28;20059;-48
2023/12/28 00:40:24;;;;;;;4.63;2.15;;;8.70;99.90;;;;;;5081256;28;20165;-44
2023/12/28 00:42:49;;;;;;;7.47;2.40;;;8.70;99.90;;;;;;5082330;28;20017;-46
2023/12/28 00:45:15;;;;;;;3.13;1.90;;;8.80;99.90;;;;;;5084126;28;20028;-43
2023/12/28 00:47:43;;;;;;;4.80;1.90;;;8.80;99.90;;;;;;5080759;28;20021;-45
2023/12/28 00:50:09;;;;;;;5.25;2.45;;;8.80;99.90;;;;;;5084626;28;20072;-47
2023/12/28 00:52:34;;;;;;;9.05;2.22;;;8.70;99.90;;;;;;5081559;28;20029;-44
2023/12/28 00:55:00;;;;;;;7.50;3.08;;;8.80;99.90;;;;;;5083838;28;20022;-44
2023/12/28 00:57:26;;;;;;;2.70;2.08;;;8.80;99.90;;;;;;5082248;28;20388;-42
2023/12/28 00:59:51;;;;;;;6.05;2.53;;;8.90;99.90;;;;;;5082424;28;20028;-45
2023/12/28 01:02:17;;;;;;;3.33;2.00;;;8.90;99.90;;;;;;5079020;28;20028;-45
2023/12/28 01:04:42;;;;;;;5.65;2.40;;;8.90;99.90;;;;;;5081482;28;20017;-43
2023/12/28 01:07:08;;;;;;;5.07;2.60;;;8.90;99.90;;;;;;5083956;28;20055;-47
2023/12/28 01:09:33;;;;;;;7.00;3.40;;;9.00;99.90;;;;;;5080665;28;20062;-47
2023/12/28 01:11:59;;;;;;;8.80;4.07;;;8.90;99.90;;;;;;5083881;28;20028;-44
2023/12/28 01:14:25;;;;;;;6.25;2.33;;;9.00;99.90;;;;;;5083179;28;20406;-45
2023/12/28 01:16:50;;;;;;;5.57;2.78;;;9.00;99.90;;;;;;5082191;28;20017;-46
2023/12/28 01:19:16;;;;;;;5.63;3.22;;;9.10;99.90;;;;;;5084264;28;20028;-46
2023/12/28 01:21:42;;;;;;;9.10;3.13;;;9.20;99.90;;;;;;5073133;28;20451;-43
2023/12/28 01:24:07;;;;;;;4.68;2.10;;;9.10;99.90;;;;;;5084391;28;20020;-43
2023/12/28 01:26:34;;;;;;;2.58;1.75;;;9.20;99.90;;;;;;5081554;28;20035;-46
2023/12/28 01:29:02;;;;;;;6.18;2.10;;;9.20;99.90;;;;;;5083597;28;20034;-46
2023/12/28 01:31:28;;;;;;;3.17;2.10;;;9.30;99.90;;;;;;5081104;28;20397;-43
2023/12/28 01:33:54;;;;;;;3.97;1.90;;;9.30;99.90;;;;;;5073662;28;20504;-45
2023/12/28 01:36:21;;;;;;;5.28;1.98;;;9.40;99.90;;;;;;5070579;28;20024;-46
2023/12/28 01:38:46;;;;;;;4.45;1.80;;;9.40;99.90;;;;;;5072927;28;20021;-45
2023/12/28 01:41:13;;;;;;;2.85;1.80;;;9.50;99.90;;;;;;5071260;28;20077;-45
2023/12/28 01:43:39;;;;;;;4.97;1.90;;;9.50;99.90;;;;;;5070570;28;20107;-43
2023/12/28 01:46:06;;;;;;;3.92;1.73;;;9.50;99.90;;;;;;5074181;28;20024;-44
2023/12/28 01:48:32;;;;;;;4.25;1.75;;;9.50;99.90;;;;;;5082217;28;20103;-47
2023/12/28 01:50:59;;;;;;;5.03;2.08;;;9.50;99.90;;;;;;5083424;28;20028;-46
2023/12/28 01:53:24;;;;;;;3.15;2.10;;;9.50;99.90;;;;;;5083475;28;20093;-45
2023/12/28 01:55:51;;;;;;;3.72;2.03;;;9.40;99.90;;;;;;5081956;28;20050;-43
2023/12/28 01:58:17;;;;;;;3.28;1.73;;;9.40;99.90;;;;;;5083620;28;20481;-44
2023/12/28 02:00:45;;;;;;;3.17;1.80;;;9.30;99.90;;;;;;5080548;28;20168;-43
2023/12/28 02:03:11;;;;;;;3.38;2.13;;;9.30;99.90;;;;;;5079359;28;20016;-45
2023/12/28 02:05:37;;;;;;;3.38;1.90;;;9.20;99.90;;;;;;5079854;28;20447;-46
2023/12/28 02:08:03;;;;;;;6.00;2.13;;;9.20;99.90;;;;;;5071589;28;20043;-47
2023/12/28 02:10:29;;;;;;;3.67;1.75;;;9.20;99.90;;;;;;5082986;28;20222;-44
2023/12/28 02:12:55;;;;;;;4.38;1.73;;;9.20;99.90;;;;;;5080168;28;20162;-42
2023/12/28 02:15:21;;;;;;;3.83;2.05;;;9.20;99.90;;;;;;5080349;28;20019;-46
2023/12/28 02:18:00;;;;;;;2.00;1.42;;;9.20;99.90;;;;;;5080947;28;20028;-45
2023/12/28 02:20:29;;;;;;;4.88;1.83;;;9.20;99.90;;;;;;5082993;28;20046;-44
2023/12/28 02:22:55;;;;;;;4.00;1.88;;;9.10;99.90;;;;;;5082855;28;20024;-43
2023/12/28 02:25:21;;;;;;;3.83;1.85;;;9.10;99.90;;;;;;5084038;28;20031;-44
2023/12/28 02:27:49;;;;;;;2.92;1.77;;;9.10;99.90;;;;;;5081208;28;20016;-45
2023/12/28 02:30:17;;;;;;;4.03;2.10;;;9.10;99.90;;;;;;5084240;28;20024;-43
2023/12/28 02:33:10;;;;;;;5.55;2.10;;;9.10;99.90;;;;;;5081694;28;20459;-44
2023/12/28 02:35:40;;;;;;;2.70;1.70;;;9.10;99.90;;;;;;5082031;28;20432;-44
2023/12/28 02:38:09;;;;;;;3.78;1.73;;;9.20;99.90;;;;;;5072136;28;20026;-45
2023/12/28 02:40:39;;;;;;;5.22;1.92;;;9.10;99.90;;;;;;5082133;28;20024;-47
2023/12/28 02:43:06;;;;;;;3.15;1.92;;;9.20;99.90;;;;;;5080821;28;20021;-44
2023/12/28 02:45:32;;;;;;;3.10;1.80;;;9.20;99.90;;;;;;5062055;28;20433;-43
2023/12/28 02:47:58;;;;;;;5.65;1.85;;;9.20;99.90;;;;;;5062643;28;20032;-45
2023/12/28 02:50:23;;;;;;;2.80;1.88;;;9.20;99.90;;;;;;5057372;28;20108;-44
2023/12/28 02:52:49;;;;;;;2.50;1.90;;;9.20;99.90;;;;;;5061857;28;20032;-45
2023/12/28 02:55:14;;;;;;;2.42;1.75;;;9.20;99.90;;;;;;5063586;28;20426;-43
2023/12/28 02:57:40;;;;;;;3.97;2.30;;;9.20;99.90;;;;;;5053670;28;20029;-44
2023/12/28 03:00:08;;;;;;;4.50;1.98;;;9.20;99.90;;;;;;5063584;28;20105;-44
2023/12/28 03:02:36;;;;;;;3.30;2.05;;;9.20;99.90;;;;;;5062289;28;20036;-46
2023/12/28 03:05:02;;;;;;;4.55;2.05;;;9.20;99.90;;;;;;5063599;28;20036;-42
2023/12/28 03:07:27;;;;;;;4.13;1.92;;;9.20;99.90;;;;;;5063073;28;20525;-43
2023/12/28 03:09:53;;;;;;;4.28;2.30;;;9.10;99.90;;;;;;5060073;28;20537;-44
2023/12/28 03:12:18;;;;;;;3.67;1.83;;;9.20;99.90;;;;;;5059500;28;20017;-44
2023/12/28 03:14:44;;;;;;;4.68;2.45;;;9.10;99.90;;;;;;5061688;28;20059;-44
2023/12/28 03:17:11;;;;;;;4.13;1.98;;;9.20;99.90;;;;;;5061903;28;20582;-43
2023/12/28 03:19:37;;;;;;;2.92;1.70;;;9.10;99.90;;;;;;5062426;28;20020;-43
2023/12/28 03:22:03;;;;;;;2.92;1.65;;;9.20;99.90;;;;;;5063845;28;20039;-43
2023/12/28 03:24:29;;;;;;;5.10;2.20;;;9.10;99.90;;;;;;5067233;28;20103;-44
2023/12/28 03:26:54;;;;;;;6.25;2.20;;;9.10;99.90;;;;;;5066450;28;20072;-47
2023/12/28 03:29:20;;;;;;;4.18;2.20;;;9.20;99.90;;;;;;5068546;28;20051;-44
2023/12/28 03:31:45;;;;;;;4.90;2.40;;;9.20;99.90;;;;;;5066590;28;20488;-43
2023/12/28 03:34:11;;;;;;;4.80;2.00;;;9.20;99.90;;;;;;5068219;28;20051;-44
2023/12/28 03:36:37;;;;;;;4.20;1.80;;;9.20;99.90;;;;;;5066356;28;20028;-45
2023/12/28 03:39:06;;;;;;;3.35;2.33;;;9.20;99.90;;;;;;5063585;28;20024;-45
2023/12/28 03:41:31;;;;;;;2.80;1.75;;;9.20;99.90;;;;;;5067315;28;20028;-45
2023/12/28 03:43:57;;;;;;;4.25;1.83;;;9.20;99.90;;;;;;5067734;28;20692;-47
2023/12/28 03:46:23;;;;;;;4.10;1.92;;;9.20;99.90;;;;;;5068375;28;20095;-44
2023/12/28 03:48:49;;;;;;;4.15;1.92;;;9.20;99.90;;;;;;5066751;28;20020;-44
2023/12/28 03:51:15;;;;;;;3.95;1.75;;;9.20;99.90;;;;;;5066975;28;20013;-45
2023/12/28 03:53:41;;;;;;;2.40;2.00;;;9.10;99.90;;;;;;5066325;28;20478;-46
2023/12/28 03:56:07;;;;;;;5.00;1.90;;;9.10;99.90;;;;;;5066022;28;20035;-44
2023/12/28 03:58:32;;;;;;;4.22;2.00;;;9.10;99.90;;;;;;5062758;28;20407;-43
2023/12/28 04:00:58;;;;;;;4.53;2.75;;;9.10;99.90;;;;;;5067598;28;20031;-46
2023/12/28 04:03:24;;;;;;;4.28;2.30;;;9.10;99.90;;;;;;5060194;28;20478;-44
2023/12/28 04:05:50;;;;;;;4.10;2.00;;;9.10;99.90;;;;;;5066420;28;20494;-44
2023/12/28 04:08:15;;;;;;;7.10;1.95;;;9.00;99.90;;;;;;5068044;28;20033;-44
2023/12/28 04:10:41;;;;;;;3.05;2.00;;;9.00;99.90;;;;;;5066952;28;20021;-45
2023/12/28 04:13:07;;;;;;;5.13;2.05;;;9.10;99.90;;;;;;5064235;28;20044;-47
2023/12/28 04:15:32;;;;;;;3.10;2.00;;;9.10;99.90;;;;;;5064868;28;20042;-44
2023/12/28 04:17:58;;;;;;;4.45;2.20;;;9.10;99.90;;;;;;5067435;28;20561;-44
2023/12/28 04:20:24;;;;;;;5.13;1.92;;;9.10;99.90;;;;;;5068225;28;20382;-45
2023/12/28 04:22:49;;;;;;;4.28;2.40;;;9.10;99.90;;;;;;5067239;28;20107;-46
2023/12/28 04:25:18;;;;;;;7.88;2.10;;;9.10;99.90;;;;;;5068398;28;20487;-44
2023/12/28 04:27:44;;;;;;;4.15;2.28;;;9.00;99.90;;;;;;5066650;28;20033;-46
2023/12/28 04:30:12;;;;;;;3.63;2.00;;;9.00;99.90;;;;;;5068459;28;20019;-47
2023/12/28 04:32:39;;;;;;;3.38;2.00;;;9.00;99.90;;;;;;5060176;28;20106;-44
2023/12/28 04:35:05;;;;;;;4.65;2.20;;;9.00;99.90;;;;;;5053495;28;20021;-43
2023/12/28 04:37:32;;;;;;;6.47;2.47;;;9.10;99.90;;;;;;5068063;28;20490;-44
2023/12/28 04:39:58;;;;;;;3.20;2.13;;;9.00;99.90;;;;;;5066723;28;20100;-43
2023/12/28 04:42:24;;;;;;;2.85;2.05;;;9.00;99.90;;;;;;5068466;28;20071;-43
2023/12/28 04:44:49;;;;;;;5.15;2.45;;;9.00;99.90;;;;;;5067132;28;20486;-44
2023/12/28 04:47:15;;;;;;;4.18;2.25;;;8.90;99.90;;;;;;5068163;28;20106;-46
2023/12/28 04:49:40;;;;;;;6.38;2.25;;;8.90;99.90;;;;;;5067664;28;20021;-45
2023/12/28 04:52:06;;;;;;;2.95;2.20;;;8.80;99.90;;;;;;5068433;28;20019;-44
2023/12/28 04:54:33;;;;;;;3.55;2.47;;;8.90;99.90;;;;;;5068347;28;20032;-45
2023/12/28 04:56:58;;;;;;;4.85;2.38;;;8.80;99.90;;;;;;5066898;28;20660;-48
2023/12/28 04:59:24;;;;;;;2.92;2.10;;;8.80;99.90;;;;;;5067126;28;20052;-45
2023/12/28 05:01:50;;;;;;;4.20;2.55;;;8.80;99.90;;;;;;5067844;28;20381;-44
2023/12/28 05:04:15;;;;;;;5.70;2.55;;;8.80;99.90;;;;;;5068271;28;20107;-43
2023/12/28 05:06:41;;;;;;;3.58;2.38;;;8.70;99.90;;;;;;5066954;28;20036;-44
2023/12/28 05:09:06;;;;;;;6.45;2.13;;;8.70;99.90;;;;;;5068353;28;20031;-44
2023/12/28 05:11:32;;;;;;;5.88;2.35;;;8.70;99.90;;;;;;5068386;28;20043;-43
2023/12/28 05:13:57;;;;;;;5.32;2.60;;;8.70;99.90;;;;;;5067661;28;20092;-43
2023/12/28 05:16:23;;;;;;;3.10;2.33;;;8.60;99.90;;;;;;5067014;28;20020;-44
2023/12/28 05:18:49;;;;;;;4.75;2.70;;;8.60;99.90;;;;;;5067209;28;20025;-44
2023/12/28 05:21:15;;;;;;;12.27;2.38;;;8.60;99.90;;;;;;5068810;28;20115;-44
2023/12/28 05:23:41;;;;;;;5.60;2.58;;;8.50;99.90;;;;;;5066176;28;20564;-44
2023/12/28 05:26:07;;;;;;;3.97;2.50;;;8.50;99.90;;;;;;5068630;28;20021;-44
2023/12/28 05:28:32;;;;;;;3.88;2.45;;;8.50;99.90;;;;;;5068266;28;20100;-45
2023/12/28 05:31:01;;;;;;;5.35;2.60;;;8.40;99.90;;;;;;5067917;28;20028;-46
2023/12/28 05:33:27;;;;;;;7.88;3.20;;;8.40;99.90;;;;;;5068346;28;20021;-45
2023/12/28 05:35:52;;;;;;;4.68;2.50;;;8.40;99.90;;;;;;5067482;28;20095;-46
2023/12/28 05:38:18;;;;;;;5.10;2.53;;;8.40;99.90;;;;;;5067992;28;20059;-45
2023/12/28 05:40:47;;;;;;;5.60;3.05;;;8.30;99.90;;;;;;5067891;28;20033;-46
2023/12/28 05:43:12;;;;;;;3.95;2.10;;;8.30;99.90;;;;;;5068604;28;20095;-44
2023/12/28 05:45:38;;;;;;;3.63;2.47;;;8.30;99.90;;;;;;5067736;28;20031;-47
2023/12/28 05:48:04;;;;;;;6.72;2.50;;;8.30;99.90;;;;;;5067217;28;20028;-46
2023/12/28 05:50:30;;;;;;;3.67;2.60;;;8.20;99.90;;;;;;5068047;28;20460;-47
2023/12/28 05:52:56;;;;;;;4.32;2.70;;;8.20;99.90;;;;;;5067709;28;20460;-44
2023/12/28 05:55:22;;;;;;;8.30;2.80;;;8.20;99.90;;;;;;5061401;28;20078;-43
2023/12/28 05:57:47;;;;;;;5.60;2.92;;;8.20;99.90;;;;;;5058486;28;20498;-48
2023/12/28 06:00:14;;;;;;;6.20;2.60;;;8.20;99.90;;;;;;5068365;28;20023;-43
2023/12/28 06:02:41;;;;;;;6.55;3.05;;;8.20;99.90;;;;;;5068236;28;20044;-45
2023/12/28 06:05:06;;;;;;;4.75;2.97;;;8.20;99.90;;;;;;5068153;28;20104;-46
2023/12/28 06:07:32;;;;;;;6.07;2.90;;;8.20;99.90;;;;;;5067593;28;20048;-44
2023/12/28 06:09:58;;;;;;;4.28;2.78;;;8.20;99.90;;;;;;5049629;28;20169;-43
2023/12/28 06:12:23;;;;;;;3.15;2.40;;;8.20;99.90;;;;;;5048438;28;20088;-44
2023/12/28 06:14:49;;;;;;;5.43;2.55;;;8.20;99.90;;;;;;5048745;28;20021;-48
2023/12/28 06:17:15;;;;;;;3.58;2.65;;;8.20;99.90;;;;;;5046116;28;20470;-48
2023/12/28 06:19:41;;;;;;;5.32;2.60;;;8.20;99.90;;;;;;5047882;28;20040;-47
2023/12/28 06:22:07;;;;;;;4.85;2.70;;;8.20;99.90;;;;;;5048009;28;20029;-44
2023/12/28 06:24:33;;;;;;;4.05;2.75;;;8.20;99.90;;;;;;5048424;28;20021;-46
2023/12/28 06:26:58;;;;;;;8.07;2.75;;;8.20;99.90;;;;;;5047688;28;20058;-45
2023/12/28 06:29:24;;;;;;;7.47;2.72;;;8.30;99.90;;;;;;5048576;28;20021;-47
2023/12/28 06:31:49;;;;;;;4.72;2.88;;;8.20;99.90;;;;;;5048686;28;20434;-45
2023/12/28 06:34:15;;;;;;;4.85;2.63;;;8.20;99.90;;;;;;5048862;28;20048;-45
2023/12/28 06:36:41;;;;;;;5.00;2.90;;;8.20;99.90;;;;;;5048742;28;20483;-45
2023/12/28 06:39:06;;;;;;;4.63;2.65;;;8.20;99.90;;;;;;5048625;28;20107;-47
2023/12/28 06:41:32;;;;;;;5.35;2.60;;;8.30;99.90;;;;;;5048802;28;20037;-44
2023/12/28 06:43:57;;;;;;;4.85;2.58;;;8.20;99.90;;;;;;5048501;28;20074;-45
2023/12/28 06:46:23;;;;;;;8.93;2.25;;;8.30;99.90;;;;;;5048483;28;20512;-45
2023/12/28 06:48:49;;;;;;;4.47;2.55;;;8.30;99.90;;;;;;5048544;28;20024;-43
2023/12/28 06:51:19;;;;;;;4.38;2.70;;;8.30;99.90;;;;;;5048273;28;20109;-44
2023/12/28 06:53:45;;;;;;;5.05;3.17;;;8.30;99.90;;;;;;5048649;28;20486;-43
2023/12/28 06:56:11;;;;;;;5.43;2.40;;;8.30;99.90;;;;;;5047827;28;20088;-43
2023/12/28 06:58:36;;;;;;;4.60;2.42;;;8.30;99.90;;;;;;5047891;28;20036;-42
2023/12/28 07:01:08;;;;;;;4.80;2.40;;;8.30;99.90;;;;;;5047519;28;20362;-43
2023/12/28 07:03:33;;;;;;;4.35;2.90;;;8.40;99.90;;;;;;5053814;28;20174;-43
2023/12/28 07:05:59;;;;;;;5.07;2.75;;;8.50;99.90;;;;;;5048169;28;20529;-43
2023/12/28 07:08:26;;;;;;;6.30;3.20;;;8.50;99.90;;;;;;5048202;28;20329;-43
2023/12/28 07:10:52;;;;;;;7.03;2.50;;;8.50;99.90;;;;;;5045858;28;20484;-43
2023/12/28 07:13:18;;;;;;;5.10;2.30;;;8.50;99.90;;;;;;5047242;28;20049;-43
2023/12/28 07:15:43;;;;;;;5.15;2.80;;;8.50;99.90;;;;;;5046580;28;20045;-43
2023/12/28 07:18:09;;;;;;;5.97;2.58;;;8.50;99.90;;;;;;5046711;28;20021;-44
2023/12/28 07:20:34;;;;;;;6.18;2.72;;;8.50;99.90;;;;;;5047464;28;20090;-44
2023/12/28 07:23:00;;;;;;;4.57;2.63;;;8.50;99.90;;;;;;5047229;28;20028;-42
2023/12/28 07:25:26;;;;;;;4.57;2.38;;;8.50;99.90;;;;;;5046096;28;20025;-44
2023/12/28 07:27:51;;;;;;;3.80;2.35;;;8.50;99.90;;;;;;5046904;28;20056;-45
2023/12/28 07:30:17;;;;;;;5.15;2.45;;;8.50;99.90;;;;;;5047469;28;20025;-44
2023/12/28 07:32:44;;;;;;;4.63;2.40;;;8.40;99.90;;;;;;5049084;28;20013;-51
2023/12/28 07:35:10;;;;;;;3.83;2.35;;;8.40;99.90;;;;;;5047508;28;20425;-45
2023/12/28 07:37:36;;;;;;;3.90;2.38;;;8.40;99.90;;;;;;5048110;28;20032;-43
2023/12/28 07:40:03;;;;;;;3.60;2.45;;;8.40;99.90;;;;;;5048304;28;20032;-44
2023/12/28 07:42:29;;;;;;;3.55;2.30;;;8.40;99.90;;;;;;5049188;28;20029;-44
2023/12/28 07:44:54;;;;;;;5.25;2.60;;;8.50;99.90;;;;;;5048053;28;20032;-45
2023/12/28 07:47:20;;;;;;;3.03;2.30;;;8.50;99.90;;;;;;5048449;28;20029;-46
2023/12/28 07:49:46;;;;;;;4.43;2.47;;;8.50;99.90;;;;;;5048980;28;20096;-43
2023/12/28 07:52:11;;;;;;;5.45;2.15;;;8.50;99.90;;;;;;5049817;28;20025;-45
2023/12/28 07:54:37;;;;;;;5.07;2.70;;;8.50;99.90;;;;;;5050109;28;20028;-43
2023/12/28 07:57:03;;;;;;;6.18;2.67;;;8.60;99.90;;;;;;5049775;28;20028;-44
2023/12/28 07:59:28;;;;;;;9.43;2.60;;;8.60;99.90;;;;;;5048597;28;20021;-44
2023/12/28 08:01:55;;;;;;;4.13;2.13;;;8.60;99.90;;;;;;5049998;28;20017;-43
2023/12/28 08:04:20;;;;;;;3.42;2.25;;;8.70;99.90;;;;;;5050202;28;20025;-44
2023/12/28 08:06:46;;;;;;;6.05;2.55;;;8.70;99.90;;;;;;5051004;28;20439;-44
2023/12/28 08:09:12;;;;;;;7.00;2.97;;;8.70;99.90;;;;;;5050227;28;20025;-44
2023/12/28 08:11:37;;;;;;;3.70;2.50;;;8.70;99.90;;;;;;5053656;28;20217;-44
2023/12/28 08:14:03;;;;;;;3.85;2.47;;;8.70;99.90;;;;;;5053305;28;20213;-44
2023/12/28 08:16:29;;;;;;;6.95;2.42;;;8.80;99.90;;;;;;5053578;28;20486;-44
2023/12/28 08:18:54;;;;;;;8.10;2.83;;;8.80;99.90;;;;;;5053744;28;20025;-44
2023/12/28 08:21:20;;;;;;;4.32;2.40;;;8.80;99.90;;;;;;5053934;28;20035;-43
2023/12/28 08:23:46;;;;;;;5.13;2.80;;;8.80;99.90;;;;;;5053445;28;20524;-45
2023/12/28 08:26:11;;;;;;;5.00;2.40;;;8.80;99.90;;;;;;5053995;28;20028;-44
2023/12/28 08:28:37;;;;;;;7.88;2.60;;;8.90;99.90;;;;;;5053481;28;20021;-44
2023/12/28 08:31:03;;;;;;;4.28;2.22;;;8.90;99.90;;;;;;5055146;28;20469;-44
2023/12/28 08:33:29;;;;;;;3.38;2.40;;;8.80;99.90;;;;;;5053669;28;20096;-45
2023/12/28 08:35:54;;;;;;;3.63;2.55;;;8.90;99.90;;;;;;5054803;28;20096;-46
2023/12/28 08:38:20;;;;;;;3.30;2.20;;;8.90;99.90;;;;;;5052081;28;20319;-46
2023/12/28 08:40:45;;;;;;;4.47;2.63;;;8.90;99.90;;;;;;5055031;28;20029;-45
2023/12/28 08:43:11;;;;;;;9.25;2.88;;;8.90;99.90;;;;;;5054273;28;20025;-44
2023/12/28 08:45:37;;;;;;;3.70;2.60;;;8.80;99.90;;;;;;5053750;28;20028;-44
2023/12/28 08:48:03;;;;;;;4.18;2.70;;;8.80;99.90;;;;;;5054610;28;20024;-43
2023/12/28 08:50:29;;;;;;;6.00;3.00;;;8.80;99.90;;;;;;5053845;28;20103;-44
2023/12/28 08:52:54;;;;;;;7.75;3.13;;;8.80;99.90;;;;;;5055193;28;20049;-43
2023/12/28 08:55:21;;;;;;;5.45;2.30;;;8.80;99.90;;;;;;5053560;28;20504;-42
2023/12/28 08:57:47;;;;;;;5.07;2.83;;;8.80;99.90;;;;;;5054056;28;20021;-43
2023/12/28 09:00:14;;;;;;;8.50;2.95;;;8.70;99.90;;;;;;5054043;28;20023;-43
2023/12/28 09:02:41;;;;;;;5.03;2.35;;;8.80;99.90;;;;;;5052541;28;20028;-43
2023/12/28 09:05:07;;;;;;;6.57;2.72;;;8.80;99.90;;;;;;5053658;28;20067;-43
2023/12/28 09:07:33;;;;;;;5.18;2.70;;;8.80;99.90;;;;;;5053533;28;20064;-43
2023/12/28 09:09:58;;;;;;;4.45;3.10;;;8.80;99.90;;;;;;5055863;28;20022;-43
2023/12/28 09:12:24;;;;;;;5.18;2.60;;;8.80;99.90;;;;;;5054147;28;20371;-44
2023/12/28 09:14:52;;;;;;;4.32;2.78;;;8.90;99.90;;;;;;5054726;28;20048;-43
2023/12/28 09:17:21;;;;;;;5.53;2.40;;;9.00;99.90;;;;;;5051198;28;20134;-44
2023/12/28 09:19:46;;;;;;;5.65;2.88;;;9.10;99.90;;;;;;5054517;28;20452;-43
2023/12/28 09:22:12;;;;;;;3.35;2.53;;;9.30;99.90;;;;;;5053946;28;21566;-44
2023/12/28 09:24:37;;;;;;;5.20;2.60;;;9.30;99.90;;;;;;5053609;28;20025;-42
2023/12/28 09:27:03;;;;;;;4.78;2.50;;;9.40;99.90;;;;;;5052573;28;20025;-43
2023/12/28 09:29:29;;;;;;;6.03;2.20;;;9.50;99.90;;;;;;5052627;28;20048;-45
2023/12/28 09:31:54;;;;;;;4.47;2.50;;;9.60;99.90;;;;;;5055658;28;20514;-45
2023/12/28 09:34:20;;;;;;;3.45;2.17;;;9.70;99.90;;;;;;5053956;28;20020;-48
2023/12/28 09:36:46;;;;;;;4.90;2.20;;;9.80;99.90;;;;;;5054559;28;20028;-48
2023/12/28 09:39:11;;;;;;;3.75;2.50;;;9.80;99.90;;;;;;5052776;28;20029;-44
2023/12/28 09:41:42;;;;;;;2.70;2.33;;;9.90;99.90;;;;;;5053813;28;20118;-48
2023/12/28 09:44:12;;;;;;;6.95;2.80;;;10.00;99.90;;;;;;5052260;28;20497;-44
2023/12/28 09:46:41;;;;;;;2.95;2.10;;;10.00;99.90;;;;;;5054020;28;20479;-47
2023/12/28 09:49:06;;;;;;;3.92;2.50;;;10.10;99.90;;;;;;5062898;28;20492;-46
2023/12/28 09:51:32;;;;;;;5.50;2.28;;;10.10;99.90;;;;;;5052791;28;20057;-46
2023/12/28 09:53:58;;;;;;;10.15;2.60;;;10.10;99.90;;;;;;5056065;28;20406;-44
2023/12/28 09:56:24;;;;;;;4.57;2.60;;;10.00;99.90;;;;;;5054262;28;20025;-46
2023/12/28 09:58:51;;;;;;;5.28;2.65;;;10.00;99.90;;;;;;5055384;28;20306;-43
2023/12/28 10:01:18;;;;;;;3.83;2.90;;;10.00;99.90;;;;;;5054251;28;20112;-43
2023/12/28 10:03:43;;;;;;;4.05;2.38;;;9.90;99.90;;;;;;5054575;28;20032;-43
2023/12/28 10:06:09;;;;;;;6.50;2.45;;;10.00;99.90;;;;;;5055207;28;20024;-43
2023/12/28 10:08:35;;;;;;;3.75;2.42;;;9.90;99.90;;;;;;5053464;28;20096;-46
2023/12/28 10:11:03;;;;;;;5.63;2.95;;;10.00;99.90;;;;;;5054580;28;20017;-43
2023/12/28 10:13:30;;;;;;;6.47;2.67;;;10.10;99.90;;;;;;5054185;28;20409;-44
2023/12/28 10:15:59;;;;;;;5.70;2.15;;;10.20;99.90;;;;;;5056141;28;20024;-44
2023/12/28 10:18:25;;;;;;;6.93;2.78;;;10.30;99.90;;;;;;5052516;28;20116;-43
2023/12/28 10:20:51;;;;;;;5.03;2.65;;;10.50;99.90;;;;;;5055500;28;20479;-46
2023/12/28 10:23:18;;;;;;;5.82;2.42;;;10.70;99.90;;;;;;5054505;28;20459;-43
2023/12/28 10:25:45;;;;;;;3.60;2.10;;;10.90;99.90;;;;;;5054358;28;20071;-44
2023/12/28 10:28:12;;;;;;;5.35;2.40;;;11.10;99.90;;;;;;5055149;28;20032;-43
2023/12/28 10:30:38;;;;;;;8.00;2.42;;;11.20;99.90;;;;;;5054008;28;20063;-46
2023/12/28 10:33:07;;;;;;;5.78;2.47;;;11.20;99.90;;;;;;5051457;28;20529;-43
2023/12/28 10:35:33;;;;;;;4.80;2.17;;;11.20;99.90;;;;;;5052729;28;20548;-43
2023/12/28 10:38:00;;;;;;;7.20;2.53;;;11.10;99.90;;;;;;5055589;28;20024;-45
2023/12/28 10:40:27;;;;;;;3.78;2.10;;;11.10;99.90;;;;;;5054205;28;20021;-45
2023/12/28 10:43:01;;;;;;;12.70;3.10;;;11.10;99.90;;;;;;5055841;28;20029;-44
2023/12/28 10:45:29;;;;;;;3.33;2.10;;;11.10;99.90;;;;;;5054064;28;20056;-42
2023/12/28 10:48:04;;;;;;;5.25;2.17;;;11.00;99.90;;;;;;5056054;28;20029;-43
2023/12/28 10:50:46;;;;;;;5.10;2.17;;;11.50;99.90;;;;;;5054027;28;20104;-44
2023/12/28 10:53:55;;;;;;;2.75;2.13;;;12.20;99.90;;;;;;5052395;28;20104;-45
2023/12/28 10:56:32;;;;;;;4.97;2.30;;;13.40;99.90;;;;;;5052528;28;20013;-48
2023/12/28 10:59:07;;;;;;;8.38;2.22;;;14.60;99.90;;;;;;5056540;28;20016;-44
2023/12/28 11:01:38;;;;;;;4.25;2.60;;;15.40;99.50;;;;;;5054394;28;20017;-46
2023/12/28 11:04:24;;;;;;;5.53;2.42;;;16.10;97.00;;;;;;5057073;28;20024;-46
2023/12/28 11:06:51;;;;;;;4.13;2.30;;;17.20;95.20;;;;;;5053744;28;20482;-44
2023/12/28 11:09:18;;;;;;;3.95;2.13;;;16.80;94.20;;;;;;5052825;28;20043;-44
2023/12/28 11:11:45;;;;;;;3.28;2.03;;;17.10;93.80;;;;;;5053501;28;20394;-48
2023/12/28 11:14:12;;;;;;;5.03;1.80;;;17.40;92.80;;;;;;5054753;28;20020;-46
2023/12/28 11:16:40;;;;;;;2.67;1.88;;;17.10;92.60;;;;;;5056414;28;20024;-45
2023/12/28 11:19:08;;;;;;;5.47;1.90;;;16.50;93.70;;;;;;5060052;28;20021;-46
2023/12/28 11:21:34;;;;;;;5.97;2.17;;;15.50;94.40;;;;;;5057504;28;20027;-44
2023/12/28 11:24:01;;;;;;;6.50;2.20;;;14.80;95.50;;;;;;5057867;28;20099;-47
2023/12/28 11:26:28;;;;;;;6.40;1.98;;;14.00;96.90;;;;;;5048961;28;20025;-45
2023/12/28 11:29:03;;;;;;;4.32;2.03;;;13.70;98.20;;;;;;5056128;28;20395;-44
2023/12/28 11:31:34;;;;;;;6.82;2.10;;;13.50;98.80;;;;;;5054630;28;20382;-48
2023/12/28 11:33:59;;;;;;;5.05;2.42;;;13.30;99.00;;;;;;5057417;28;20082;-48
2023/12/28 11:36:40;;;;;;;7.60;2.80;;;13.00;99.90;;;;;;5053235;28;20405;-44
2023/12/28 11:39:06;;;;;;;6.72;2.40;;;12.60;99.90;;;;;;5051205;28;20027;-44
2023/12/28 11:41:33;;;;;;;9.20;2.35;;;12.50;99.90;;;;;;5052965;28;20494;-46
2023/12/28 11:44:05;;;;;;;8.65;2.03;;;12.40;99.90;;;;;;5058568;28;20045;-43
2023/12/28 11:46:36;;;;;;;6.43;2.00;;;12.30;99.90;;;;;;5058425;28;20051;-44
2023/12/28 11:49:09;;;;;;;6.80;2.50;;;12.20;99.90;;;;;;5060933;28;20025;-45
2023/12/28 11:51:37;;;;;;;6.55;2.13;;;12.10;99.90;;;;;;5057932;28;20438;-45
2023/12/28 11:54:03;;;;;;;8.48;2.75;;;12.10;99.90;;;;;;5061673;28;20359;-44
2023/12/28 11:56:30;;;;;;;5.38;2.28;;;12.10;99.90;;;;;;5054049;28;20033;-45
2023/12/28 11:58:55;;;;;;;8.52;2.95;;;12.10;99.90;;;;;;5061354;28;20096;-45
2023/12/28 12:01:21;;;;;;;8.23;2.33;;;12.10;99.90;;;;;;5055110;28;20387;-44
2023/12/28 12:03:48;;;;;;;7.93;2.60;;;12.20;99.90;;;;;;5059660;28;20071;-46
2023/12/28 12:06:13;;;;;;;8.27;2.80;;;12.20;99.90;;;;;;5060773;28;20029;-44
2023/12/28 12:08:39;;;;;;;3.83;2.20;;;12.10;99.90;;;;;;5058687;28;20048;-43
2023/12/28 12:11:06;;;;;;;7.35;4.05;;;12.00;99.90;;;;;;5062006;28;20474;-45
2023/12/28 12:13:31;;;;;;;8.38;2.53;;;11.90;99.90;;;;;;5059220;28;20017;-46
2023/12/28 12:15:57;;;;;;;7.00;3.08;;;11.80;99.90;;;;;;5061516;28;20032;-48
2023/12/28 12:18:25;;;;;;;11.43;3.10;;;11.70;99.90;;;;;;5059157;28;20036;-45
2023/12/28 12:20:50;;;;;;;7.57;2.53;;;11.60;99.90;;;;;;5059153;28;20122;-47
2023/12/28 12:23:16;;;;;;;6.18;2.15;;;11.60;99.90;;;;;;5059342;28;20034;-48
2023/12/28 12:25:42;;;;;;;7.45;3.47;;;11.60;99.90;;;;;;5058903;28;20029;-46
2023/12/28 12:28:08;;;;;;;15.00;2.72;;;11.60;99.90;;;;;;5061267;28;20032;-45
2023/12/28 12:30:34;;;;;;;6.72;2.38;;;11.60;99.90;;;;;;5057610;28;20029;-46
2023/12/28 12:33:00;;;;;;;9.75;2.63;;;11.70;99.90;;;;;;5061314;28;20389;-44
2023/12/28 12:35:27;;;;;;;8.55;2.38;;;11.70;99.90;;;;;;5055235;28;20017;-44
2023/12/28 12:37:54;;;;;;;13.23;3.45;;;11.80;99.90;;;;;;5059738;28;20025;-46
2023/12/28 12:40:20;;;;;;;8.75;2.75;;;11.70;99.90;;;;;;5058669;28;20032;-46
2023/12/28 12:42:53;;;;;;;10.32;2.80;;;11.70;99.90;;;;;;5059528;28;20604;-45
2023/12/28 12:45:20;;;;;;;13.32;2.75;;;11.70;99.90;;;;;;5058440;28;20048;-44
2023/12/28 12:47:46;;;;;;;5.28;2.13;;;11.70;99.90;;;;;;5056089;28;20029;-44
2023/12/28 12:50:12;;;;;;;10.73;2.50;;;11.70;99.90;;;;;;5061331;28;20020;-43
2023/12/28 12:52:38;;;;;;;9.73;2.30;;;11.70;99.90;;;;;;5058575;28;20021;-45